Bankston, Iowa
Current Conditions -  °F | °C
As of 12:53 PM on Saturday 20 Dec 2014 (Local Time) from KDBQ Reporting Station
Haze Haze  
Wind Chill: 23°   Ceiling: 1800
Heat Index: 31°   Visibility: 5mi
Dew Point: 25°   Wind: 9mph
Humidity: 79%   Direction: 160°SSE
Pressure: 30.19"   Gusts: NA
Location:  42.4445°N, 90.9251°W
Report Text: KDBQ 201853Z 16008KT 5SM HZ OVC018 M01/M04 A3019 RMK AO2 SLP238 T10061039
Loading
Personal Weather Stations






























Interactive Weather Map New forecast layout! Learn more

10-Day Weather Forecast

Advertisements
Track Severe Weather on mobile